createdAt,value
2023-04-01T00:08:06.655Z,7.60
2023-04-01T00:18:14.897Z,7.20
2023-04-01T00:28:23.016Z,7.00
2023-04-01T00:38:30.062Z,6.20
2023-04-01T00:48:41.070Z,7.20
2023-04-01T00:58:53.382Z,7.10
2023-04-01T01:09:22.257Z,5.90
2023-04-01T01:19:41.115Z,8.80
2023-04-01T01:30:26.053Z,8.60
2023-04-01T01:40:36.736Z,5.70
2023-04-01T01:50:44.005Z,6.40
2023-04-01T02:00:48.821Z,6.50
2023-04-01T02:10:54.205Z,6.40
2023-04-01T02:21:01.485Z,5.70
2023-04-01T02:31:10.613Z,8.90
2023-04-01T02:41:17.806Z,10.30
2023-04-01T02:51:25.496Z,7.80
2023-04-01T03:01:31.758Z,7.80
2023-04-01T03:11:39.010Z,8.50
2023-04-01T03:21:46.259Z,8.30
2023-04-01T03:31:53.207Z,8.20
2023-04-01T03:42:01.234Z,9.10
2023-04-01T03:52:10.314Z,11.80
2023-04-01T04:02:17.373Z,12.60
2023-04-01T04:12:24.633Z,10.60
2023-04-01T04:22:31.701Z,7.70
2023-04-01T04:32:38.509Z,7.00
2023-04-01T04:42:45.774Z,6.50
2023-04-01T04:52:52.791Z,6.90
2023-04-01T05:02:59.865Z,9.20
2023-04-01T05:13:07.077Z,6.40
2023-04-01T05:23:14.232Z,8.80
2023-04-01T05:33:21.220Z,10.30
2023-04-01T05:43:29.107Z,10.90
2023-04-01T05:53:36.239Z,10.00
2023-04-01T06:03:43.717Z,7.40
2023-04-01T06:14:09.400Z,10.50
2023-04-01T06:24:30.537Z,8.90
2023-04-01T06:34:46.023Z,8.00
2023-04-01T06:44:56.247Z,8.10
2023-04-01T07:05:13.370Z,7.90
2023-04-01T07:15:19.601Z,7.30
2023-04-01T07:25:31.687Z,9.60
2023-04-01T07:35:41.261Z,12.00
2023-04-01T07:45:53.960Z,11.20
2023-04-01T07:56:05.519Z,8.60
2023-04-01T08:06:09.750Z,5.90
2023-04-01T08:16:20.516Z,5.90
2023-04-01T08:26:28.430Z,6.40
2023-04-01T08:36:37.045Z,5.70
2023-04-01T08:47:23.984Z,6.00
2023-04-01T08:57:33.486Z,6.00
2023-04-01T09:07:40.235Z,4.10
2023-04-01T09:17:58.719Z,4.00
2023-04-01T09:28:05.222Z,5.70
2023-04-01T09:38:16.380Z,4.40
2023-04-01T09:48:26.215Z,4.80
2023-04-01T09:58:59.269Z,5.90
2023-04-01T10:09:43.862Z,4.20
2023-04-01T10:20:17.693Z,4.00
2023-04-01T10:30:59.027Z,7.80
2023-04-01T10:41:23.455Z,2.30
2023-04-01T10:52:04.851Z,2.50
2023-04-01T11:02:45.283Z,2.80
2023-04-01T11:13:13.304Z,2.00
2023-04-01T11:24:01.874Z,2.00
2023-04-01T11:34:19.149Z,2.70
2023-04-01T11:44:29.764Z,3.40
2023-04-01T11:54:42.785Z,7.40
2023-04-01T12:05:00.617Z,19.30
2023-04-01T12:15:16.196Z,10.60
2023-04-01T12:25:25.560Z,9.60
2023-04-01T12:35:35.458Z,17.00
2023-04-01T12:45:40.993Z,8.40
2023-04-01T12:55:53.834Z,8.10
2023-04-01T13:06:22.187Z,8.50
2023-04-01T13:16:30.147Z,4.00
2023-04-01T13:26:35.863Z,3.00
2023-04-01T13:36:46.052Z,8.30
2023-04-01T13:46:56.864Z,3.80
2023-04-01T13:57:07.779Z,4.50
2023-04-01T14:07:18.335Z,6.30
2023-04-01T14:17:47.618Z,6.00
2023-04-01T14:27:56.414Z,4.10
2023-04-01T14:38:29.692Z,4.40
2023-04-01T14:48:38.164Z,6.50
2023-04-01T14:58:45.531Z,7.20
2023-04-01T15:08:52.052Z,8.50
2023-04-01T15:18:59.663Z,8.00
2023-04-01T15:29:10.118Z,8.80
2023-04-01T15:39:15.815Z,22.10
2023-04-01T15:49:29.887Z,16.80
2023-04-01T15:59:48.771Z,43.20
2023-04-01T16:10:01.493Z,8.00
2023-04-01T16:20:09.147Z,8.50
2023-04-01T16:30:34.962Z,8.70
2023-04-01T16:40:43.254Z,12.90
2023-04-01T16:50:53.097Z,14.90
2023-04-01T17:01:02.883Z,17.70
2023-04-01T17:11:09.779Z,24.90
2023-04-01T17:21:16.162Z,28.20
2023-04-01T17:31:35.974Z,51.40
2023-04-01T17:51:49.092Z,27.10
2023-04-01T18:01:57.579Z,38.20
2023-04-01T18:12:10.092Z,32.70
2023-04-01T18:22:17.684Z,30.40
2023-04-01T18:32:38.040Z,22.70
2023-04-01T18:42:45.651Z,23.10
2023-04-01T18:52:57.304Z,25.50
2023-04-01T19:03:04.834Z,21.60
2023-04-01T19:13:18.543Z,23.80
2023-04-01T19:23:40.833Z,27.70
2023-04-01T19:33:49.370Z,24.90
2023-04-01T19:44:01.214Z,24.90
2023-04-01T19:54:15.509Z,23.20
2023-04-01T20:04:29.431Z,21.50
2023-04-01T20:14:39.090Z,23.00
2023-04-01T20:24:47.793Z,26.30
2023-04-01T20:34:58.800Z,24.50
2023-04-01T20:45:17.544Z,25.20
2023-04-01T20:55:31.589Z,28.90
2023-04-01T21:05:56.821Z,26.50
2023-04-01T21:16:10.300Z,28.00
2023-04-01T21:26:35.765Z,26.30
2023-04-01T21:36:49.095Z,25.70
2023-04-01T21:47:25.145Z,26.00
2023-04-01T21:57:59.760Z,25.50
2023-04-01T22:08:05.649Z,24.80
2023-04-01T22:18:18.283Z,23.40
2023-04-01T22:28:29.727Z,23.40
2023-04-01T22:38:40.579Z,25.00
2023-04-01T22:48:48.991Z,26.00
2023-04-01T22:58:57.509Z,25.50
2023-04-01T23:09:07.355Z,25.80
2023-04-01T23:19:17.646Z,26.50
2023-04-01T23:29:27.347Z,26.70
2023-04-01T23:39:32.225Z,27.00
2023-04-01T23:49:36.349Z,24.60
2023-04-01T23:59:43.124Z,22.40
